Time;durP1;ratioP1;P1;durP2;ratioP2;P2;SDS_P1;SDS_P2;PMS_P1;PMS_P2;Temp;Humidity;BMP_temperature;BMP_pressure;BME280_temperature;BME280_humidity;BME280_pressure;Samples;Min_cycle;Max_cycle;Signal;HPM_P1;HPM_P2
2022/03/13 00:00:21;;;;;;;1.10;0.60;;;;;;;3.16;76.20;100309.88;5032193;28;20512;-50
2022/03/13 00:02:48;;;;;;;0.30;0.20;;;;;;;3.40;75.62;100301.13;5030154;28;20463;-49
2022/03/13 00:05:16;;;;;;;0.20;0.20;;;;;;;3.30;76.16;100300.25;5023216;28;20451;-50
2022/03/13 00:07:44;;;;;;;1.10;0.40;;;;;;;3.34;76.49;100295.88;5032220;28;20528;-49
2022/03/13 00:10:12;;;;;;;0.30;0.30;;;;;;;3.20;77.69;100294.13;5025975;28;20517;-50
2022/03/13 00:12:39;;;;;;;0.50;0.50;;;;;;;3.12;77.56;100301.09;5031691;28;20483;-50
2022/03/13 00:15:09;;;;;;;0.50;0.50;;;;;;;3.30;77.56;100302.88;5032435;28;20452;-50
2022/03/13 00:17:35;;;;;;;0.20;0.10;;;;;;;3.36;77.07;100291.50;5026396;28;20501;-50
2022/03/13 00:20:05;;;;;;;0.20;0.20;;;;;;;3.21;76.75;100295.88;5024604;28;20521;-50
2022/03/13 00:22:34;;;;;;;0.37;0.37;;;;;;;3.27;76.78;100297.59;5031978;28;20860;-49
2022/03/13 00:25:08;;;;;;;0.20;0.13;;;;;;;2.95;77.34;100295.81;5018870;28;20484;-50
2022/03/13 00:27:35;;;;;;;2.03;2.03;;;;;;;3.10;77.35;100294.97;5020297;28;20454;-49
2022/03/13 00:30:06;;;;;;;0.30;0.20;;;;;;;2.67;78.30;100294.84;5031991;28;20514;-49
2022/03/13 00:32:33;;;;;;;0.20;0.20;;;;;;;2.75;77.42;100294.91;5035206;28;20495;-50
2022/03/13 00:35:00;;;;;;;0.20;0.10;;;;;;;2.56;78.13;100296.56;5035299;28;20493;-49
2022/03/13 00:37:27;;;;;;;1.07;1.07;;;;;;;2.60;78.55;100295.72;5035314;28;20448;-50
2022/03/13 00:39:55;;;;;;;0.30;0.30;;;;;;;2.55;79.65;100296.56;5035156;28;20458;-49
2022/03/13 00:42:21;;;;;;;0.20;0.20;;;;;;;2.65;78.63;100299.22;5025426;28;20468;-50
2022/03/13 00:44:49;;;;;;;0.20;0.20;;;;;;;2.46;79.66;100309.63;5018213;28;20517;-49
2022/03/13 00:47:21;;;;;;;0.30;0.30;;;;;;;2.38;79.27;100310.47;5025429;28;20492;-50
2022/03/13 00:49:49;;;;;;;0.50;0.50;;;;;;;2.33;80.00;100306.06;5032210;28;20455;-49
2022/03/13 00:52:17;;;;;;;0.30;0.27;;;;;;;2.25;81.15;100302.56;5035005;28;20472;-49
2022/03/13 00:54:44;;;;;;;0.30;0.20;;;;;;;2.45;80.69;100308.75;5034920;28;20448;-50
2022/03/13 00:57:10;;;;;;;0.50;0.50;;;;;;;2.26;79.82;100318.28;5034809;28;20999;-50
2022/03/13 00:59:37;;;;;;;1.47;1.40;;;;;;;2.17;81.38;100314.72;5034908;28;20456;-49
2022/03/13 01:02:04;;;;;;;0.93;0.93;;;;;;;2.10;80.26;100312.97;5023209;28;20496;-49
2022/03/13 01:04:31;;;;;;;1.70;1.70;;;;;;;2.17;81.29;100307.75;5020029;28;20487;-50
2022/03/13 01:06:58;;;;;;;2.63;2.53;;;;;;;2.40;80.13;100294.75;5034730;28;20491;-49
2022/03/13 01:09:24;;;;;;;2.23;0.60;;;;;;;2.18;80.85;100299.00;5028987;28;20491;-49
2022/03/13 01:11:51;;;;;;;0.20;0.10;;;;;;;2.21;80.34;100298.16;5034458;28;20459;-50
2022/03/13 01:14:20;;;;;;;0.20;0.20;;;;;;;2.02;81.83;100289.31;5027228;28;20824;-49
2022/03/13 01:16:47;;;;;;;0.30;0.20;;;;;;;2.16;82.17;100292.88;5030494;28;20890;-49
2022/03/13 01:19:13;;;;;;;0.20;0.10;;;;;;;2.24;81.37;100287.69;5034076;28;20459;-49
2022/03/13 01:21:41;;;;;;;0.87;0.87;;;;;;;2.41;80.96;100291.25;5034406;28;20944;-49
2022/03/13 01:24:11;;;;;;;1.60;1.60;;;;;;;2.32;80.95;100289.47;5033981;28;21020;-49
2022/03/13 01:26:38;;;;;;;0.20;0.20;;;;;;;2.42;78.30;100284.25;5034138;28;20549;-49
2022/03/13 01:29:12;;;;;;;0.20;0.20;;;;;;;1.91;81.62;100284.00;5028964;28;20460;-49
2022/03/13 01:31:43;;;;;;;2.03;1.93;;;;;;;1.89;81.30;100287.47;5034256;28;20470;-49
2022/03/13 01:34:30;;;;;;;0.20;0.20;;;;;;;2.09;80.97;100285.88;5034091;28;20972;-50
2022/03/13 01:36:57;;;;;;;0.30;0.10;;;;;;;1.90;81.49;100279.63;5034156;28;20486;-49
2022/03/13 01:39:24;;;;;;;1.17;1.17;;;;;;;1.89;81.09;100284.84;5033215;28;20498;-49
2022/03/13 01:41:51;;;;;;;0.20;0.20;;;;;;;2.24;80.25;100277.19;5033773;28;20509;-49
2022/03/13 01:44:18;;;;;;;0.30;0.30;;;;;;;1.87;80.19;100270.88;5029422;28;20456;-50
2022/03/13 01:46:45;;;;;;;0.30;0.20;;;;;;;1.86;78.62;100276.97;5031058;28;20992;-49
2022/03/13 01:49:12;;;;;;;0.20;0.10;;;;;;;1.70;79.79;100284.75;5026289;28;20447;-50
2022/03/13 01:51:39;;;;;;;0.20;0.10;;;;;;;1.94;80.08;100278.78;5033928;28;20448;-50
2022/03/13 01:54:11;;;;;;;0.20;0.10;;;;;;;1.66;78.56;100279.47;5033872;28;20522;-49
2022/03/13 01:56:39;;;;;;;0.20;0.10;;;;;;;1.72;78.86;100269.03;5002221;28;20485;-50
2022/03/13 01:59:08;;;;;;;0.40;0.40;;;;;;;1.55;79.76;100278.53;5027451;28;20447;-50
2022/03/13 02:01:35;;;;;;;0.20;0.10;;;;;;;1.53;81.05;100275.88;5026473;28;20444;-49
2022/03/13 02:04:02;;;;;;;0.20;0.10;;;;;;;1.39;80.71;100267.94;5028069;28;20533;-49
2022/03/13 02:06:29;;;;;;;0.20;0.10;;;;;;;1.53;80.66;100270.66;5033657;28;20495;-49
2022/03/13 02:08:56;;;;;;;0.20;0.10;;;;;;;1.66;80.70;100263.75;5022898;28;21034;-49
2022/03/13 02:11:26;;;;;;;0.30;0.10;;;;;;;1.84;81.01;100260.38;5033636;28;20452;-49
2022/03/13 02:13:54;;;;;;;0.20;0.10;;;;;;;1.60;80.40;100256.72;5023924;28;21009;-50
2022/03/13 02:16:22;;;;;;;0.20;0.10;;;;;;;1.81;79.99;100261.25;5033732;28;20497;-50
2022/03/13 02:18:51;;;;;;;0.20;0.10;;;;;;;1.81;81.79;100255.13;5029569;28;20452;-49
2022/03/13 02:21:19;;;;;;;2.00;0.80;;;;;;;1.63;80.84;100255.84;5033312;28;20459;-49
2022/03/13 02:23:45;;;;;;;0.20;0.10;;;;;;;1.45;79.99;100248.75;5033153;28;20475;-49
2022/03/13 02:26:12;;;;;;;0.20;0.10;;;;;;;1.38;80.92;100252.22;5033262;28;20515;-49
2022/03/13 02:28:53;;;;;;;0.20;0.10;;;;;;;1.26;80.35;100252.09;5024567;28;20479;-49
2022/03/13 02:31:39;;;;;;;0.20;0.10;;;;;;;1.28;80.12;100243.38;5033388;28;20451;-50
2022/03/13 02:34:12;;;;;;;0.20;0.10;;;;;;;1.03;81.33;100251.88;5011135;28;20472;-50
2022/03/13 02:36:38;;;;;;;0.20;0.10;;;;;;;1.07;81.11;100241.44;5032925;28;20448;-50
2022/03/13 02:39:07;;;;;;;0.20;0.10;;;;;;;1.17;80.06;100239.81;5022870;28;20452;-49
2022/03/13 02:41:35;;;;;;;0.63;0.63;;;;;;;1.16;80.06;100240.66;5029546;28;20502;-49
2022/03/13 02:44:02;;;;;;;0.20;0.10;;;;;;;1.14;80.92;100237.16;5032898;28;20479;-50
2022/03/13 02:46:54;;;;;;;0.20;0.10;;;;;;;0.86;81.88;100238.66;5032258;28;20487;-49
2022/03/13 02:49:23;;;;;;;0.20;0.10;;;;;;;1.06;81.78;100244.06;5026551;28;21002;-50
2022/03/13 02:51:52;;;;;;;0.20;0.10;;;;;;;1.06;82.39;100244.06;5032490;28;20945;-49
2022/03/13 02:54:19;;;;;;;0.20;0.10;;;;;;;1.05;81.95;100245.81;5020090;28;20502;-49
2022/03/13 02:56:46;;;;;;;0.20;0.10;;;;;;;0.96;82.15;100247.44;5032940;28;20456;-49
2022/03/13 02:59:13;;;;;;;0.67;0.67;;;;;;;1.06;81.93;100241.44;5032591;28;20496;-49
2022/03/13 03:01:41;;;;;;;0.30;0.20;;;;;;;0.97;82.37;100255.34;5024138;28;20479;-49
2022/03/13 03:04:08;;;;;;;0.20;0.13;;;;;;;0.93;82.60;100248.31;5027709;28;20563;-50
2022/03/13 03:06:37;;;;;;;0.20;0.10;;;;;;;0.87;83.24;100251.75;5032735;28;20903;-49
2022/03/13 03:09:04;;;;;;;1.13;1.13;;;;;;;0.91;83.06;100254.38;5020284;28;20457;-49
2022/03/13 03:11:34;;;;;;;0.20;0.10;;;;;;;0.85;83.50;100250.88;5032714;28;20451;-49
2022/03/13 03:14:02;;;;;;;0.20;0.10;;;;;;;0.79;84.00;100252.53;5032270;28;20479;-49
2022/03/13 03:16:30;;;;;;;0.50;0.50;;;;;;;0.87;83.61;100256.09;5031929;28;20506;-49
2022/03/13 03:18:57;;;;;;;0.20;0.20;;;;;;;0.91;82.71;100252.66;5030166;28;20937;-49
2022/03/13 03:21:25;;;;;;;0.20;0.10;;;;;;;0.64;84.42;100253.25;5032503;28;20984;-49
2022/03/13 03:23:51;;;;;;;0.20;0.20;;;;;;;0.51;84.24;100246.13;5021725;28;20475;-49
2022/03/13 03:26:18;;;;;;;0.20;0.10;;;;;;;0.39;85.08;100249.47;5033113;28;20514;-49
2022/03/13 03:28:46;;;;;;;0.20;0.10;;;;;;;0.54;84.09;100246.16;5039345;28;20797;-49
2022/03/13 03:31:13;;;;;;;0.20;0.10;;;;;;;0.50;85.34;100249.59;5041784;28;20448;-50
2022/03/13 03:33:40;;;;;;;0.20;0.13;;;;;;;0.51;84.08;100241.75;5040562;28;20507;-49
2022/03/13 03:36:06;;;;;;;1.90;1.70;;;;;;;0.47;84.40;100245.22;5032397;28;20456;-50
2022/03/13 03:38:33;;;;;;;0.30;0.20;;;;;;;0.49;83.88;100247.84;5022990;28;20451;-49
2022/03/13 03:41:00;;;;;;;0.50;0.47;;;;;;;0.31;85.15;100240.69;5031105;28;20517;-50
2022/03/13 03:43:26;;;;;;;0.30;0.10;;;;;;;0.48;83.89;100233.91;5032048;28;20472;-49
2022/03/13 03:45:56;;;;;;;0.20;0.10;;;;;;;0.50;84.26;100232.16;5032069;28;20870;-49
2022/03/13 03:48:23;;;;;;;0.60;0.60;;;;;;;0.13;84.99;100235.22;5022343;28;20523;-49
2022/03/13 03:50:50;;;;;;;0.20;0.20;;;;;;;0.31;85.68;100239.81;5032469;28;20517;-49
2022/03/13 03:53:16;;;;;;;0.30;0.20;;;;;;;0.33;84.09;100233.72;5032236;28;20499;-49
2022/03/13 03:55:43;;;;;;;0.50;0.50;;;;;;;0.20;84.95;100231.81;5032403;28;20509;-49
2022/03/13 03:58:13;;;;;;;0.30;0.20;;;;;;;0.28;84.38;100235.41;5006511;28;20966;-49
2022/03/13 04:00:40;;;;;;;0.20;0.10;;;;;;;0.17;84.63;100237.91;5032004;28;20451;-49
2022/03/13 04:03:06;;;;;;;0.20;0.10;;;;;;;0.32;85.60;100234.59;5000482;28;20476;-49
2022/03/13 04:05:34;;;;;;;0.30;0.20;;;;;;;0.22;85.33;100240.56;5010466;28;20463;-49
2022/03/13 04:08:00;;;;;;;0.50;0.47;;;;;;;0.20;85.92;100237.06;5026704;28;20491;-49
2022/03/13 04:10:27;;;;;;;0.73;0.73;;;;;;;0.20;84.57;100230.09;5030015;28;20451;-49
2022/03/13 04:12:54;;;;;;;0.20;0.10;;;;;;;0.20;85.10;100235.31;5036015;28;20487;-49
2022/03/13 04:15:20;;;;;;;0.20;0.10;;;;;;;0.03;85.68;100236.84;5035897;28;20520;-48
2022/03/13 04:17:47;;;;;;;0.20;0.10;;;;;;;0.14;85.13;100234.38;5025650;28;20445;-48
2022/03/13 04:20:14;;;;;;;0.20;0.10;;;;;;;0.36;83.23;100231.13;5030024;28;20472;-49
2022/03/13 04:22:40;;;;;;;0.20;0.10;;;;;;;0.02;85.65;100234.22;5035588;28;20898;-49
2022/03/13 04:25:07;;;;;;;0.20;0.10;;;;;;;0.10;85.40;100238.66;5035512;28;20447;-49
2022/03/13 04:27:35;;;;;;;0.20;0.10;;;;;;;0.04;84.80;100236.00;5035311;28;20513;-49
2022/03/13 04:30:02;;;;;;;0.20;0.10;;;;;;;0.02;85.03;100234.22;5035453;28;20458;-48
2022/03/13 04:32:29;;;;;;;0.20;0.10;;;;;;;0.04;84.98;100235.13;5028872;28;20530;-48
2022/03/13 04:34:56;;;;;;;0.20;0.10;;;;;;;0.12;84.66;100243.91;5029150;28;20497;-49
2022/03/13 04:37:24;;;;;;;0.80;0.80;;;;;;;-0.07;84.90;100240.19;5024601;28;20447;-49
2022/03/13 04:39:50;;;;;;;0.20;0.10;;;;;;;-0.09;85.63;100249.75;5035301;28;20459;-49
2022/03/13 04:42:18;;;;;;;0.20;0.10;;;;;;;-0.19;86.03;100248.72;5034838;28;20471;-49
2022/03/13 04:44:45;;;;;;;0.20;0.10;;;;;;;-0.32;86.20;100260.72;5027707;28;20463;-49
2022/03/13 04:47:12;;;;;;;0.20;0.10;;;;;;;-0.37;86.53;100256.31;5028912;28;20515;-49
2022/03/13 04:49:39;;;;;;;0.30;0.30;;;;;;;-0.27;85.39;100253.00;5031691;28;20448;-49
2022/03/13 04:52:06;;;;;;;0.20;0.10;;;;;;;-0.17;86.20;100257.47;5035101;28;20452;-48
2022/03/13 04:54:32;;;;;;;0.20;0.10;;;;;;;-0.23;85.91;100262.59;5034754;28;20509;-49
2022/03/13 04:56:59;;;;;;;0.20;0.10;;;;;;;-0.32;86.63;100260.72;5035045;28;20501;-48
2022/03/13 04:59:26;;;;;;;0.30;0.20;;;;;;;-0.45;87.32;100270.97;5031780;28;20456;-48
2022/03/13 05:01:52;;;;;;;0.20;0.10;;;;;;;-0.46;87.66;100272.69;5034542;28;20493;-48
2022/03/13 05:04:19;;;;;;;0.20;0.10;;;;;;;-0.41;87.11;100280.59;5034864;28;20879;-48
2022/03/13 05:06:46;;;;;;;60.20;55.30;;;;;;;-0.40;87.07;100279.78;5023174;28;20542;-48
2022/03/13 05:09:13;;;;;;;0.20;0.10;;;;;;;-0.35;86.74;100284.19;5025159;28;20479;-48
2022/03/13 05:11:39;;;;;;;0.20;0.10;;;;;;;-0.37;86.73;100285.91;5035098;28;20509;-48
2022/03/13 05:14:06;;;;;;;0.20;0.10;;;;;;;-0.52;86.60;100280.44;5034458;28;20530;-48
2022/03/13 05:16:33;;;;;;;0.60;0.60;;;;;;;-0.41;87.27;100284.13;5029000;28;20525;-49
2022/03/13 05:19:00;;;;;;;0.20;0.10;;;;;;;-0.49;87.40;100277.88;5031445;28;20874;-48
2022/03/13 05:21:27;;;;;;;0.20;0.10;;;;;;;-0.25;87.25;100277.38;5026779;28;20509;-48
2022/03/13 05:23:54;;;;;;;0.30;0.20;;;;;;;-0.57;86.69;100279.47;5034437;28;20882;-48
2022/03/13 05:26:20;;;;;;;0.20;0.10;;;;;;;-0.42;85.98;100281.44;5034688;28;20447;-48
2022/03/13 05:28:47;;;;;;;0.20;0.20;;;;;;;-0.43;86.19;100277.09;5034385;28;20541;-48
2022/03/13 05:31:14;;;;;;;0.20;0.10;;;;;;;-0.53;86.74;100289.13;5017133;28;20476;-48
2022/03/13 05:33:41;;;;;;;0.20;0.10;;;;;;;-0.67;86.79;100288.91;5031609;28;20996;-48
2022/03/13 05:36:08;;;;;;;0.20;0.10;;;;;;;-0.62;86.93;100291.59;5034182;28;21015;-48
2022/03/13 05:38:35;;;;;;;0.30;0.20;;;;;;;-0.53;86.54;100302.19;5034137;28;20483;-48
2022/03/13 05:41:02;;;;;;;0.20;0.10;;;;;;;-0.58;85.40;100311.66;5034235;28;20505;-48
2022/03/13 05:43:31;;;;;;;0.20;0.10;;;;;;;-0.95;87.28;100303.22;5026098;28;20486;-48
2022/03/13 05:45:58;;;;;;;0.20;0.10;;;;;;;-0.65;87.18;100300.25;5029507;28;20534;-48
2022/03/13 05:48:25;;;;;;;0.30;0.20;;;;;;;-0.48;87.48;100295.31;5021767;28;20496;-48
2022/03/13 05:50:52;;;;;;;0.20;0.10;;;;;;;-0.56;87.69;100306.47;5033940;28;20458;-49
2022/03/13 05:53:19;;;;;;;0.20;0.10;;;;;;;-0.45;86.40;100305.78;5033763;28;20494;-49
2022/03/13 05:55:46;;;;;;;0.20;0.10;;;;;;;-0.49;88.27;100311.81;5033975;28;20451;-49
2022/03/13 05:58:13;;;;;;;0.20;0.10;;;;;;;-0.38;87.86;100306.78;5033860;28;20803;-49
2022/03/13 06:00:40;;;;;;;0.20;0.10;;;;;;;-0.37;87.46;100306.78;5029671;28;20460;-49
2022/03/13 06:03:08;;;;;;;0.20;0.10;;;;;;;-0.22;87.47;100306.16;5007656;28;20475;-48
2022/03/13 06:05:35;;;;;;;0.20;0.10;;;;;;;-0.39;88.03;100316.34;5032859;28;20494;-49
2022/03/13 06:08:03;;;;;;;0.20;0.10;;;;;;;-0.49;89.17;100309.22;5020868;28;20890;-48
2022/03/13 06:10:30;;;;;;;0.20;0.10;;;;;;;-0.36;88.59;100312.91;5014946;28;20476;-49
2022/03/13 06:12:56;;;;;;;0.73;0.73;;;;;;;-0.08;87.38;100311.56;5033344;28;20545;-48
2022/03/13 06:15:23;;;;;;;0.20;0.10;;;;;;;-0.02;88.08;100316.88;5021246;28;20890;-48
2022/03/13 06:17:51;;;;;;;0.20;0.10;;;;;;;0.03;88.23;100317.84;5024875;28;20448;-48
2022/03/13 06:20:18;;;;;;;0.20;0.10;;;;;;;0.02;88.24;100316.09;5022601;28;20448;-49
2022/03/13 06:22:47;;;;;;;0.20;0.10;;;;;;;0.55;87.60;100308.06;5030254;28;20535;-49
2022/03/13 06:25:15;;;;;;;0.30;0.20;;;;;;;0.35;87.30;100307.81;5028188;28;20452;-49
2022/03/13 06:27:43;;;;;;;1.40;1.40;;;;;;;0.53;88.40;100307.16;5032884;28;20554;-49
2022/03/13 06:30:16;;;;;;;0.20;0.13;;;;;;;0.56;87.76;100307.22;5033134;28;20826;-49
2022/03/13 06:32:45;;;;;;;0.20;0.10;;;;;;;0.80;88.40;100309.22;5027542;28;20464;-49
2022/03/13 06:35:14;;;;;;;0.20;0.10;;;;;;;1.16;86.63;100304.38;5030733;28;20821;-48
2022/03/13 06:37:41;;;;;;;0.77;0.77;;;;;;;1.26;87.10;100314.94;5033035;28;20968;-49
2022/03/13 06:40:16;;;;;;;0.30;0.20;;;;;;;1.43;86.43;100315.97;5030787;28;20443;-49
2022/03/13 06:42:42;;;;;;;0.20;0.10;;;;;;;1.62;85.50;100319.59;5025604;28;21015;-50
2022/03/13 06:45:10;;;;;;;0.20;0.10;;;;;;;1.67;84.96;100316.16;5032989;28;20452;-49
2022/03/13 06:47:46;;;;;;;0.20;0.10;;;;;;;1.74;84.78;100323.19;5023190;28;20567;-49
2022/03/13 06:50:15;;;;;;;0.30;0.30;;;;;;;1.75;83.41;100324.94;5001091;28;20476;-49
2022/03/13 06:52:42;;;;;;;1.57;0.83;;;;;;;1.94;82.95;100333.84;5027400;28;20471;-49
2022/03/13 06:55:10;;;;;;;0.30;0.20;;;;;;;2.11;83.53;100343.53;5032871;28;20941;-49
2022/03/13 06:57:36;;;;;;;0.30;0.20;;;;;;;2.10;82.94;100332.19;5029815;28;20451;-49
2022/03/13 07:00:04;;;;;;;0.20;0.10;;;;;;;1.51;84.36;100319.53;5030890;28;20452;-49
2022/03/13 07:02:30;;;;;;;0.20;0.10;;;;;;;1.62;84.73;100330.94;5032146;28;20471;-49
2022/03/13 07:04:57;;;;;;;0.20;0.20;;;;;;;1.81;83.81;100336.34;5024255;28;20934;-49
2022/03/13 07:07:24;;;;;;;0.20;0.10;;;;;;;2.04;83.16;100350.47;5027759;28;20545;-49
2022/03/13 07:09:51;;;;;;;1.43;1.33;;;;;;;1.95;83.12;100351.31;5026743;28;20451;-49
2022/03/13 07:12:19;;;;;;;0.20;0.10;;;;;;;1.97;83.48;100343.44;5032410;28;20898;-50
2022/03/13 07:14:46;;;;;;;0.20;0.10;;;;;;;2.20;82.58;100346.22;5032058;28;20506;-49
2022/03/13 07:17:17;;;;;;;0.30;0.20;;;;;;;2.32;81.36;100346.28;5026921;28;20456;-49
2022/03/13 07:19:45;;;;;;;0.20;0.10;;;;;;;2.44;81.46;100356.84;5032535;28;20503;-49
2022/03/13 07:22:13;;;;;;;0.20;0.20;;;;;;;2.64;80.98;100349.09;5035066;28;20891;-49
2022/03/13 07:24:41;;;;;;;0.30;0.30;;;;;;;2.80;80.33;100361.38;5030869;28;20507;-49
2022/03/13 07:27:08;;;;;;;0.20;0.20;;;;;;;2.90;79.63;100363.19;5030095;28;20447;-49
2022/03/13 07:29:35;;;;;;;0.20;0.10;;;;;;;3.10;79.03;100352.72;5032576;28;20448;-49
2022/03/13 07:32:02;;;;;;;0.20;0.10;;;;;;;3.29;77.87;100343.16;5032366;28;20880;-49
2022/03/13 07:34:29;;;;;;;0.33;0.30;;;;;;;3.40;78.25;100341.41;5032479;28;20498;-49
2022/03/13 07:36:56;;;;;;;0.20;0.10;;;;;;;3.43;77.07;100343.19;5025858;28;20464;-49
2022/03/13 07:39:24;;;;;;;0.20;0.10;;;;;;;3.31;77.27;100335.28;5028291;28;20944;-49
2022/03/13 07:41:55;;;;;;;3.50;2.93;;;;;;;3.51;76.67;100328.28;5033420;28;20512;-49
2022/03/13 07:44:22;;;;;;;0.30;0.10;;;;;;;3.84;76.02;100325.66;5023459;28;21007;-49
2022/03/13 07:46:49;;;;;;;0.30;0.20;;;;;;;4.00;75.06;100317.75;5032895;28;20453;-49
2022/03/13 07:49:15;;;;;;;0.20;0.10;;;;;;;4.16;72.90;100317.72;5029687;28;20491;-49
2022/03/13 07:51:43;;;;;;;0.20;0.20;;;;;;;4.25;74.36;100323.81;5021782;28;20455;-49
2022/03/13 07:54:10;;;;;;;0.20;0.10;;;;;;;4.36;72.85;100315.03;5036261;28;20475;-50
2022/03/13 07:56:37;;;;;;;0.57;0.57;;;;;;;4.45;72.92;100324.66;5036947;28;20502;-49
2022/03/13 07:59:04;;;;;;;0.20;0.20;;;;;;;4.53;71.25;100320.25;5036281;28;20467;-49
2022/03/13 08:01:30;;;;;;;0.83;0.83;;;;;;;4.65;70.72;100309.66;5036254;28;20497;-49
2022/03/13 08:03:57;;;;;;;0.20;0.10;;;;;;;4.91;68.66;100314.78;5022455;28;20472;-49
2022/03/13 08:06:24;;;;;;;0.30;0.30;;;;;;;4.86;69.06;100320.97;5024517;28;20448;-49
2022/03/13 08:08:50;;;;;;;0.90;0.87;;;;;;;4.82;69.94;100327.16;5030087;28;20550;-49
2022/03/13 08:11:17;;;;;;;0.20;0.10;;;;;;;4.95;70.21;100319.19;5034146;28;21034;-49
2022/03/13 08:13:43;;;;;;;0.30;0.17;;;;;;;5.08;70.53;100325.25;5022830;28;20512;-49
2022/03/13 08:16:10;;;;;;;0.30;0.20;;;;;;;5.25;71.85;100330.41;5016129;28;20503;-49
2022/03/13 08:18:38;;;;;;;0.20;0.10;;;;;;;5.25;72.38;100333.06;5016928;28;20453;-49
2022/03/13 08:21:05;;;;;;;0.20;0.10;;;;;;;5.45;72.54;100339.06;5019027;28;20456;-49
2022/03/13 08:23:31;;;;;;;0.20;0.10;;;;;;;5.55;70.22;100331.97;5024000;28;20467;-49
2022/03/13 08:25:58;;;;;;;0.20;0.20;;;;;;;5.74;69.09;100333.56;5024433;28;21279;-49
2022/03/13 08:28:25;;;;;;;0.30;0.20;;;;;;;5.84;67.99;100332.59;5019890;28;20484;-50
2022/03/13 08:30:55;;;;;;;3.47;0.93;;;;;;;5.93;66.53;100327.28;5012458;28;20459;-49
2022/03/13 08:33:22;;;;;;;0.50;0.50;;;;;;;6.01;64.37;100321.03;5029599;28;20518;-49
2022/03/13 08:35:48;;;;;;;3.60;1.03;;;;;;;6.04;60.48;100331.59;5035276;28;20475;-49
2022/03/13 08:38:16;;;;;;;0.30;0.30;;;;;;;6.28;60.50;100325.16;5034655;28;20460;-49
2022/03/13 08:40:43;;;;;;;2.83;1.80;;;;;;;6.56;61.07;100318.69;5027303;28;20531;-49
2022/03/13 08:43:09;;;;;;;0.20;0.10;;;;;;;6.43;59.11;100328.50;5034797;28;20471;-49
2022/03/13 08:45:36;;;;;;;0.30;0.20;;;;;;;6.60;56.99;100315.13;5034966;28;20444;-49
2022/03/13 08:48:03;;;;;;;0.30;0.30;;;;;;;6.69;56.31;100317.66;5024057;28;20484;-49
2022/03/13 08:50:30;;;;;;;0.30;0.20;;;;;;;6.85;56.02;100305.13;5034055;28;21022;-49
2022/03/13 08:52:57;;;;;;;0.97;0.97;;;;;;;7.02;55.95;100313.72;5034534;28;20475;-49
2022/03/13 08:55:25;;;;;;;0.30;0.30;;;;;;;7.26;55.59;100319.53;5034576;28;20448;-49
2022/03/13 08:57:51;;;;;;;0.70;0.67;;;;;;;7.38;53.92;100317.56;5024771;28;21011;-49
2022/03/13 09:00:19;;;;;;;0.30;0.23;;;;;;;7.43;48.36;100307.81;5031196;28;20452;-49
2022/03/13 09:02:45;;;;;;;0.30;0.17;;;;;;;7.55;46.76;100296.19;5016969;28;20468;-49
2022/03/13 09:05:12;;;;;;;0.57;0.57;;;;;;;7.75;46.47;100298.47;5019799;28;20456;-49
2022/03/13 09:07:39;;;;;;;0.27;0.13;;;;;;;7.63;45.17;100314.56;5019134;28;20451;-49
2022/03/13 09:10:11;;;;;;;0.30;0.30;;;;;;;7.85;46.02;100312.44;5014996;28;20449;-49
2022/03/13 09:12:38;;;;;;;0.30;0.20;;;;;;;7.96;45.22;100305.19;5031803;28;20545;-50
2022/03/13 09:15:06;;;;;;;0.30;0.20;;;;;;;8.05;43.59;100309.44;5027940;28;20436;-49
2022/03/13 09:17:34;;;;;;;0.30;0.20;;;;;;;8.01;44.64;100309.47;5030438;28;20479;-49
2022/03/13 09:20:03;;;;;;;0.33;0.23;;;;;;;8.15;43.43;100305.72;5022166;28;20511;-49
2022/03/13 09:22:30;;;;;;;0.30;0.20;;;;;;;8.02;43.79;100308.59;5025165;28;20464;-49
2022/03/13 09:24:58;;;;;;;0.30;0.20;;;;;;;8.31;44.59;100312.47;5007888;28;20453;-50
2022/03/13 09:27:30;;;;;;;0.60;0.60;;;;;;;8.44;44.10;100315.78;5017005;28;20472;-50
2022/03/13 09:29:57;;;;;;;0.70;0.70;;;;;;;8.43;43.81;100319.34;5025486;28;20519;-49
2022/03/13 09:32:25;;;;;;;0.60;0.60;;;;;;;8.74;44.38;100309.00;5017371;28;20477;-49
2022/03/13 09:34:53;;;;;;;0.30;0.30;;;;;;;8.78;44.02;100300.09;5027593;28;20471;-49
2022/03/13 09:37:21;;;;;;;0.30;0.20;;;;;;;8.67;43.76;100308.25;5033671;28;20487;-49
2022/03/13 09:40:11;;;;;;;0.30;0.20;;;;;;;9.23;43.07;100299.97;5033560;28;20539;-50
2022/03/13 09:42:39;;;;;;;0.53;0.50;;;;;;;9.04;43.16;100310.09;5033538;28;20467;-49
2022/03/13 09:45:06;;;;;;;0.30;0.20;;;;;;;9.22;43.09;100316.81;5033280;28;20826;-49
2022/03/13 09:47:33;;;;;;;0.30;0.20;;;;;;;9.52;42.50;100321.41;5024235;28;20456;-49
2022/03/13 09:49:59;;;;;;;0.30;0.20;;;;;;;9.10;41.86;100313.50;5031823;28;20572;-49
2022/03/13 09:52:26;;;;;;;0.30;0.27;;;;;;;9.59;42.50;100312.34;5033192;28;20468;-50
2022/03/13 09:54:53;;;;;;;0.93;0.93;;;;;;;9.75;41.34;100304.91;5033303;28;20452;-50
2022/03/13 09:57:20;;;;;;;8.53;1.03;;;;;;;9.86;42.04;100304.63;5033297;28;20502;-50
2022/03/13 09:59:47;;;;;;;0.40;0.23;;;;;;;10.19;42.33;100300.25;5032894;28;20847;-49
2022/03/13 10:02:14;;;;;;;0.50;0.50;;;;;;;10.37;41.69;100292.66;5031986;28;20464;-49
2022/03/13 10:04:41;;;;;;;0.40;0.20;;;;;;;10.40;42.08;100291.69;5032812;28;20478;-50
2022/03/13 10:07:10;;;;;;;2.40;1.33;;;;;;;10.61;41.52;100291.09;5032912;28;20506;-50
2022/03/13 10:09:40;;;;;;;0.30;0.20;;;;;;;10.51;41.41;100283.44;5012640;28;20497;-50
2022/03/13 10:12:16;;;;;;;0.33;0.20;;;;;;;10.42;41.29;100287.25;5032720;28;20490;-50
2022/03/13 10:15:06;;;;;;;4.33;3.03;;;;;;;10.29;41.28;100284.03;5033521;28;20479;-49
2022/03/13 10:17:38;;;;;;;0.40;0.30;;;;;;;10.20;41.13;100278.94;5028915;28;20482;-49
2022/03/13 10:20:14;;;;;;;0.40;0.40;;;;;;;10.29;40.95;100265.44;5032890;28;20493;-49
2022/03/13 10:22:50;;;;;;;0.30;0.20;;;;;;;10.52;41.27;100266.56;5081774;28;20544;-50
2022/03/13 10:25:32;;;;;;;0.80;0.80;;;;;;;10.63;40.89;100261.81;5066034;28;20447;-50
2022/03/13 10:28:14;;;;;;;0.30;0.20;;;;;;;10.61;40.42;100261.00;5060959;28;20891;-50
2022/03/13 10:30:43;;;;;;;0.40;0.40;;;;;;;10.75;40.62;100261.47;5049273;28;20885;-50
2022/03/13 10:33:10;;;;;;;0.30;0.20;;;;;;;10.91;40.87;100262.72;5063404;28;20519;-50
2022/03/13 10:35:37;;;;;;;0.87;0.87;;;;;;;10.36;40.51;100260.81;5069321;28;20454;-50
2022/03/13 10:38:16;;;;;;;0.30;0.20;;;;;;;10.74;40.56;100251.75;5055411;28;20619;-50
2022/03/13 10:40:45;;;;;;;2.20;0.70;;;;;;;10.82;39.89;100251.50;5059874;28;20545;-50
2022/03/13 10:43:18;;;;;;;3.33;0.63;;;;;;;11.00;40.71;100260.72;5065387;28;20959;-50
2022/03/13 10:45:51;;;;;;;1.50;1.13;;;;;;;11.15;40.20;100247.81;5069127;28;20449;-49
2022/03/13 10:48:33;;;;;;;1.00;1.00;;;;;;;11.30;39.55;100251.78;5060703;28;20537;-49
2022/03/13 10:51:03;;;;;;;0.63;0.63;;;;;;;11.53;39.15;100243.91;5063077;28;20446;-51
2022/03/13 10:53:31;;;;;;;0.30;0.20;;;;;;;11.39;39.43;100248.81;5069146;28;20462;-49
2022/03/13 10:56:07;;;;;;;1.03;1.03;;;;;;;11.05;39.17;100243.69;5054987;28;21027;-49
2022/03/13 10:58:44;;;;;;;0.30;0.20;;;;;;;11.36;38.70;100248.03;5063784;28;20943;-49
2022/03/13 11:01:16;;;;;;;0.40;0.30;;;;;;;11.49;38.81;100244.91;5065454;28;20478;-50
2022/03/13 11:03:49;;;;;;;0.30;0.30;;;;;;;11.64;38.51;100238.22;5064171;28;20986;-49
2022/03/13 11:06:17;;;;;;;0.43;0.43;;;;;;;11.78;38.90;100235.94;5055138;28;20466;-50
2022/03/13 11:08:44;;;;;;;0.73;0.73;;;;;;;11.90;38.18;100234.69;5060912;28;20480;-49
2022/03/13 11:11:15;;;;;;;0.30;0.20;;;;;;;11.82;38.19;100234.97;5066252;28;20575;-50
2022/03/13 11:13:42;;;;;;;1.17;1.07;;;;;;;12.01;38.37;100236.97;5067584;28;20517;-50
2022/03/13 11:16:17;;;;;;;0.40;0.30;;;;;;;11.98;38.32;100232.63;5055762;28;20452;-50
2022/03/13 11:18:45;;;;;;;0.50;0.50;;;;;;;12.24;38.62;100225.50;5066352;28;20454;-49
2022/03/13 11:21:12;;;;;;;1.93;0.77;;;;;;;12.20;38.09;100215.88;5060974;28;20892;-49
2022/03/13 11:23:39;;;;;;;0.40;0.40;;;;;;;12.12;38.44;100211.69;5067480;28;20969;-50
2022/03/13 11:26:07;;;;;;;0.40;0.30;;;;;;;12.60;37.73;100215.25;5067734;28;21012;-49
2022/03/13 11:28:35;;;;;;;0.30;0.20;;;;;;;12.62;37.26;100226.75;5067198;28;20446;-48
2022/03/13 11:31:01;;;;;;;1.17;1.07;;;;;;;12.77;38.07;100225.28;5061312;28;20478;-48
2022/03/13 11:33:33;;;;;;;0.77;0.77;;;;;;;12.71;36.76;100232.59;5055385;28;21050;-50
2022/03/13 11:36:28;;;;;;;2.27;1.93;;;;;;;12.74;37.31;100219.13;5054171;28;20443;-48